Time;durP1;ratioP1;P1;durP2;ratioP2;P2;SDS_P1;SDS_P2;PMS_P1;PMS_P2;Temp;Humidity;BMP_temperature;BMP_pressure;BME280_temperature;BME280_humidity;BME280_pressure;Samples;Min_cycle;Max_cycle;Signal;HPM_P1;HPM_P2
2022/11/06 00:00:20;;;;;;;8.27;5.85;;;;;;;;;;5074499;28;20016;-37
2022/11/06 00:02:45;;;;;;;14.93;6.35;;;;;;;;;;5074568;28;20107;-40
2022/11/06 00:07:54;;;;;;;12.45;6.65;;;;;;;;;;5074568;28;20040;-39
2022/11/06 00:10:20;;;;;;;10.43;5.93;;;;;;;;;;5074428;28;20025;-42
2022/11/06 00:12:45;;;;;;;8.35;5.30;;;;;;;;;;5074407;28;20027;-38
2022/11/06 00:15:11;;;;;;;12.63;5.40;;;;;;;;;;5074097;28;20036;-41
2022/11/06 00:17:36;;;;;;;9.02;5.53;;;;;;;;;;5074560;28;20206;-42
2022/11/06 00:20:02;;;;;;;9.27;5.30;;;;;;;;;;5074254;28;20021;-41
2022/11/06 00:22:31;;;;;;;10.32;5.60;;;;;;;;;;5074318;28;20028;-42
2022/11/06 00:24:56;;;;;;;9.00;4.95;;;;;;;;;;5074146;28;20095;-40
2022/11/06 00:27:21;;;;;;;9.07;5.20;;;;;;;;;;5074117;28;20113;-40
2022/11/06 00:29:46;;;;;;;10.60;5.50;;;;;;;;;;5073844;28;20230;-41
2022/11/06 00:32:11;;;;;;;8.87;4.50;;;;;;;;;;5074038;28;20242;-39
2022/11/06 00:34:37;;;;;;;10.33;4.67;;;;;;;;;;5074023;28;20319;-40
2022/11/06 00:37:02;;;;;;;6.73;4.60;;;;;;;;;;5072570;28;20252;-41
2022/11/06 00:39:27;;;;;;;6.60;4.30;;;;;;;;;;5073936;28;20241;-39
2022/11/06 00:41:52;;;;;;;8.00;4.28;;;;;;;;;;5074014;28;20312;-39
2022/11/06 00:44:18;;;;;;;7.95;4.25;;;;;;;;;;5073739;28;20048;-38
2022/11/06 00:46:43;;;;;;;8.30;4.82;;;;;;;;;;5073700;28;20365;-38
2022/11/06 00:49:08;;;;;;;8.60;4.47;;;;;;;;;;5073756;28;20037;-40
2022/11/06 00:51:34;;;;;;;8.70;4.93;;;;;;;;;;5073735;28;20017;-38
2022/11/06 00:54:01;;;;;;;10.88;5.10;;;;;;;;;;5073761;28;20111;-40
2022/11/06 00:56:26;;;;;;;7.57;4.50;;;;;;;;;;5073642;28;20023;-41
2022/11/06 00:58:51;;;;;;;8.18;4.35;;;;;;;;;;5073278;28;20020;-40
2022/11/06 01:01:18;;;;;;;8.00;3.97;;;;;;;;;;5073522;28;20484;-36
2022/11/06 01:03:44;;;;;;;6.03;3.95;;;;;;;;;;5073448;28;20238;-40
2022/11/06 01:06:11;;;;;;;5.85;3.97;;;;;;;;;;5073386;28;20021;-34
2022/11/06 01:08:37;;;;;;;9.52;4.55;;;;;;;;;;5072475;28;20025;-42
2022/11/06 01:11:07;;;;;;;8.68;4.35;;;;;;;;;;5073217;28;20388;-42
2022/11/06 01:13:32;;;;;;;8.02;4.60;;;;;;;;;;5073221;28;20025;-36
2022/11/06 01:15:58;;;;;;;5.80;4.05;;;;;;;;;;5073144;28;20042;-39
2022/11/06 01:18:23;;;;;;;7.13;4.10;;;;;;;;;;5073284;28;20423;-39
2022/11/06 01:20:48;;;;;;;7.13;3.60;;;;;;;;;;5071933;28;20024;-40
2022/11/06 01:23:13;;;;;;;8.73;4.30;;;;;;;;;;5073118;28;20242;-40
2022/11/06 01:25:39;;;;;;;5.15;3.33;;;;;;;;;;5073059;28;20249;-40
2022/11/06 01:28:04;;;;;;;10.00;4.10;;;;;;;;;;5072824;28;20029;-39
2022/11/06 01:30:29;;;;;;;5.93;4.20;;;;;;;;;;5073069;28;20027;-40
2022/11/06 01:32:54;;;;;;;5.73;3.40;;;;;;;;;;5073084;28;20244;-38
2022/11/06 01:35:20;;;;;;;6.53;3.67;;;;;;;;;;5072790;28;20744;-41
2022/11/06 01:37:45;;;;;;;7.43;4.20;;;;;;;;;;5072749;28;20035;-37
2022/11/06 01:40:10;;;;;;;5.33;3.87;;;;;;;;;;5072912;28;20023;-39
2022/11/06 01:42:35;;;;;;;7.22;4.60;;;;;;;;;;5072378;28;20303;-40
2022/11/06 01:45:06;;;;;;;6.27;4.13;;;;;;;;;;5072901;28;20025;-41
2022/11/06 01:47:31;;;;;;;7.82;4.53;;;;;;;;;;5072657;28;20600;-39
2022/11/06 01:49:59;;;;;;;8.27;5.10;;;;;;;;;;5073090;28;20025;-38
2022/11/06 01:52:25;;;;;;;6.57;4.25;;;;;;;;;;5072793;28;20242;-38
2022/11/06 01:54:54;;;;;;;6.50;4.60;;;;;;;;;;5072563;28;20029;-40
2022/11/06 01:57:20;;;;;;;6.90;4.75;;;;;;;;;;5072559;28;20369;-41
2022/11/06 01:59:45;;;;;;;8.10;4.65;;;;;;;;;;5072518;28;20054;-40
2022/11/06 02:02:11;;;;;;;8.38;4.75;;;;;;;;;;5073052;28;20036;-39
2022/11/06 02:04:39;;;;;;;6.25;4.78;;;;;;;;;;5072781;28;20016;-41
2022/11/06 02:07:05;;;;;;;5.78;4.07;;;;;;;;;;5072615;28;20382;-41
2022/11/06 02:09:31;;;;;;;9.25;4.82;;;;;;;;;;5072641;28;20091;-42
2022/11/06 02:12:12;;;;;;;6.35;4.43;;;;;;;;;;5072460;28;20082;-38
2022/11/06 02:14:42;;;;;;;6.63;4.10;;;;;;;;;;5072515;28;20033;-40
2022/11/06 02:17:07;;;;;;;6.05;3.88;;;;;;;;;;5072472;28;20017;-38
2022/11/06 02:19:39;;;;;;;7.33;4.63;;;;;;;;;;5073955;28;20020;-41
2022/11/06 02:22:09;;;;;;;5.88;3.42;;;;;;;;;;5076533;28;20724;-39
2022/11/06 02:24:35;;;;;;;6.22;4.13;;;;;;;;;;5076409;28;20448;-38
2022/11/06 02:27:09;;;;;;;5.07;3.77;;;;;;;;;;5076567;28;20020;-40
2022/11/06 02:29:44;;;;;;;4.65;3.60;;;;;;;;;;5076478;28;20257;-40
2022/11/06 02:32:12;;;;;;;5.63;4.15;;;;;;;;;;5076342;28;20016;-40
2022/11/06 02:34:38;;;;;;;6.23;3.83;;;;;;;;;;5076083;28;20044;-39
2022/11/06 02:37:07;;;;;;;6.32;4.10;;;;;;;;;;5076685;28;20246;-37
2022/11/06 02:39:34;;;;;;;8.07;4.13;;;;;;;;;;5076205;28;20024;-42
2022/11/06 02:42:01;;;;;;;10.05;4.10;;;;;;;;;;5076327;28;20040;-37
2022/11/06 02:44:28;;;;;;;5.53;4.05;;;;;;;;;;5075841;28;20106;-40
2022/11/06 02:46:56;;;;;;;7.97;4.38;;;;;;;;;;5076071;28;20055;-42
2022/11/06 02:49:36;;;;;;;8.23;4.78;;;;;;;;;;5075701;28;20529;-41
2022/11/06 02:52:10;;;;;;;6.03;4.40;;;;;;;;;;5076085;28;20468;-37
2022/11/06 02:54:37;;;;;;;6.68;4.97;;;;;;;;;;5075847;28;20490;-41
2022/11/06 02:57:06;;;;;;;6.25;4.28;;;;;;;;;;5075870;28;20456;-40
2022/11/06 02:59:32;;;;;;;;;;;;;;;;;;5076078;28;20026;-41
2022/11/06 03:01:59;;;;;;;7.15;4.70;;;;;;;;;;5075629;28;19904;-41
2022/11/06 03:04:24;;;;;;;11.68;4.63;;;;;;;;;;5075629;28;20420;-36
2022/11/06 03:07:10;;;;;;;7.97;4.78;;;;;;;;;;5075740;28;20017;-39
2022/11/06 03:09:36;;;;;;;6.20;4.28;;;;;;;;;;5075857;28;20031;-41
2022/11/06 03:12:13;;;;;;;6.65;5.00;;;;;;;;;;5075564;28;20021;-39
2022/11/06 03:14:42;;;;;;;6.32;4.78;;;;;;;;;;5075667;28;20028;-41
2022/11/06 03:17:14;;;;;;;5.97;4.63;;;;;;;;;;5075675;28;20027;-38
2022/11/06 03:19:54;;;;;;;5.65;4.30;;;;;;;;;;5075620;28;20375;-38
2022/11/06 03:22:52;;;;;;;13.52;4.50;;;;;;;;;;5075238;28;20113;-39
2022/11/06 03:25:22;;;;;;;5.57;4.30;;;;;;;;;;5062677;28;20395;-41
2022/11/06 03:28:06;;;;;;;6.25;4.30;;;;;;;;;;5075188;28;20024;-40
2022/11/06 03:30:33;;;;;;;5.35;4.15;;;;;;;;;;5074456;28;20020;-39
2022/11/06 03:33:05;;;;;;;8.68;4.00;;;;;;;;;;5074914;28;20172;-39
2022/11/06 03:35:34;;;;;;;7.50;4.07;;;;;;;;;;5075302;28;20032;-41
2022/11/06 03:38:04;;;;;;;5.20;3.63;;;;;;;;;;5075094;28;20027;-39
2022/11/06 03:40:32;;;;;;;5.57;3.53;;;;;;;;;;5075006;28;20559;-39
2022/11/06 03:43:03;;;;;;;5.38;4.18;;;;;;;;;;5074649;28;20325;-39
2022/11/06 03:45:30;;;;;;;6.03;3.70;;;;;;;;;;5074748;28;20047;-42
2022/11/06 03:48:18;;;;;;;4.43;3.45;;;;;;;;;;5074734;28;20110;-38
2022/11/06 03:50:47;;;;;;;4.95;3.67;;;;;;;;;;5074821;28;20361;-39
2022/11/06 03:53:27;;;;;;;4.93;3.30;;;;;;;;;;5074476;28;20024;-41
2022/11/06 03:56:03;;;;;;;4.72;3.20;;;;;;;;;;5074293;28;20040;-41
2022/11/06 03:58:31;;;;;;;5.13;3.00;;;;;;;;;;5074845;28;20024;-40
2022/11/06 04:00:57;;;;;;;4.80;3.40;;;;;;;;;;5074527;28;20482;-38
2022/11/06 04:03:26;;;;;;;5.22;2.70;;;;;;;;;;5074644;28;20027;-39
2022/11/06 04:05:57;;;;;;;3.92;3.20;;;;;;;;;;5074481;28;20021;-40
2022/11/06 04:14:00;;;;;;;13.05;3.20;;;;;;;;;;5074852;28;20027;-40
2022/11/06 04:16:52;;;;;;;3.72;3.15;;;;;;;;;;5074244;28;20035;-41
2022/11/06 04:19:19;;;;;;;5.95;2.95;;;;;;;;;;5072628;28;20115;-38
2022/11/06 04:21:58;;;;;;;4.32;3.13;;;;;;;;;;5074010;28;20111;-38
2022/11/06 04:27:25;;;;;;;4.43;3.22;;;;;;;;;;5073795;28;20442;-42
2022/11/06 04:30:10;;;;;;;3.33;2.70;;;;;;;;;;5074064;28;20024;-41
2022/11/06 04:32:54;;;;;;;5.80;2.60;;;;;;;;;;5073887;28;20058;-38
2022/11/06 04:35:25;;;;;;;4.57;3.08;;;;;;;;;;5073690;28;20468;-40
2022/11/06 04:38:09;;;;;;;3.75;2.70;;;;;;;;;;5073643;28;20032;-37
2022/11/06 04:40:37;;;;;;;3.95;2.47;;;;;;;;;;5073902;28;20025;-38
2022/11/06 04:43:05;;;;;;;3.65;2.85;;;;;;;;;;5073441;28;20053;-39
2022/11/06 04:45:33;;;;;;;6.72;2.88;;;;;;;;;;5073567;28;20016;-39
2022/11/06 04:47:58;;;;;;;4.28;2.78;;;;;;;;;;5073436;28;20021;-38
2022/11/06 04:50:24;;;;;;;4.20;2.75;;;;;;;;;;5073505;28;20456;-41
2022/11/06 04:52:50;;;;;;;5.63;3.40;;;;;;;;;;5073593;28;20024;-41
2022/11/06 04:55:16;;;;;;;7.85;2.92;;;;;;;;;;5073561;28;20032;-38
2022/11/06 04:57:41;;;;;;;3.90;2.80;;;;;;;;;;5073383;28;20574;-40
2022/11/06 05:00:11;;;;;;;4.88;3.08;;;;;;;;;;5073290;28;20020;-39
2022/11/06 05:02:36;;;;;;;4.72;2.50;;;;;;;;;;5072933;28;20025;-41
2022/11/06 05:05:01;;;;;;;5.50;2.80;;;;;;;;;;5073324;28;20035;-41
2022/11/06 05:07:26;;;;;;;9.20;3.50;;;;;;;;;;5073292;28;20257;-41
2022/11/06 05:09:52;;;;;;;4.60;2.72;;;;;;;;;;5073153;28;20047;-39
2022/11/06 05:12:17;;;;;;;5.25;3.03;;;;;;;;;;5072948;28;20407;-40
2022/11/06 05:14:42;;;;;;;4.80;3.00;;;;;;;;;;5072976;28;20032;-35
2022/11/06 05:17:07;;;;;;;4.63;2.72;;;;;;;;;;5073029;28;20772;-38
2022/11/06 05:19:33;;;;;;;5.20;2.97;;;;;;;;;;5073137;28;20077;-41
2022/11/06 05:24:42;;;;;;;5.13;2.80;;;;;;;;;;5072878;28;20085;-39
2022/11/06 05:27:07;;;;;;;4.07;2.57;;;;;;;;;;5071857;28;20448;-38
2022/11/06 05:29:32;;;;;;;4.38;2.95;;;;;;;;;;5072890;28;20631;-42
2022/11/06 05:31:57;;;;;;;6.10;3.07;;;;;;;;;;5072745;28;20025;-42
2022/11/06 05:34:23;;;;;;;6.47;3.13;;;;;;;;;;5072894;28;20285;-38
2022/11/06 05:36:48;;;;;;;4.60;3.00;;;;;;;;;;5073073;28;20249;-40
2022/11/06 05:39:13;;;;;;;4.30;2.93;;;;;;;;;;5072623;28;20299;-42
2022/11/06 05:41:38;;;;;;;4.82;3.15;;;;;;;;;;5072710;28;20279;-40
2022/11/06 05:44:04;;;;;;;3.60;2.90;;;;;;;;;;5072458;28;20407;-40
2022/11/06 05:46:29;;;;;;;5.20;2.80;;;;;;;;;;5071226;28;20029;-41
2022/11/06 05:48:54;;;;;;;5.35;2.78;;;;;;;;;;5072739;28;20029;-40
2022/11/06 05:51:20;;;;;;;5.68;3.33;;;;;;;;;;5072672;28;20024;-42
2022/11/06 05:53:45;;;;;;;5.47;3.35;;;;;;;;;;5072162;28;20024;-41
2022/11/06 05:56:11;;;;;;;5.38;3.33;;;;;;;;;;5072436;28;20082;-37
2022/11/06 05:58:36;;;;;;;7.03;3.22;;;;;;;;;;5072607;28;20095;-38
2022/11/06 06:01:02;;;;;;;3.97;2.80;;;;;;;;;;5072376;28;20031;-38
2022/11/06 06:03:27;;;;;;;4.90;3.05;;;;;;;;;;5072666;28;20454;-42
2022/11/06 06:05:52;;;;;;;6.80;2.53;;;;;;;;;;5072605;28;20029;-43
2022/11/06 06:08:17;;;;;;;4.37;2.73;;;;;;;;;;5072577;28;20075;-42
2022/11/06 06:10:43;;;;;;;6.63;3.30;;;;;;;;;;5072443;28;20234;-42
2022/11/06 06:13:09;;;;;;;5.20;3.65;;;;;;;;;;5072317;28;20256;-41
2022/11/06 06:15:36;;;;;;;6.30;3.05;;;;;;;;;;5072160;28;20472;-42
2022/11/06 06:18:01;;;;;;;4.55;3.33;;;;;;;;;;5072882;28;20112;-42
2022/11/06 06:20:26;;;;;;;4.05;2.95;;;;;;;;;;5072483;28;20511;-42
2022/11/06 06:22:53;;;;;;;5.77;3.47;;;;;;;;;;5072326;28;20016;-42
2022/11/06 06:25:18;;;;;;;4.63;3.28;;;;;;;;;;5072288;28;20340;-41
2022/11/06 06:27:43;;;;;;;5.53;3.07;;;;;;;;;;5072225;28;20044;-42
2022/11/06 06:30:09;;;;;;;4.97;3.17;;;;;;;;;;5072049;28;20252;-43
2022/11/06 06:32:34;;;;;;;4.35;2.92;;;;;;;;;;5071944;28;20252;-39
2022/11/06 06:35:00;;;;;;;5.30;3.60;;;;;;;;;;5072092;28;20440;-42
2022/11/06 06:37:25;;;;;;;6.63;3.20;;;;;;;;;;5072566;28;20241;-40
2022/11/06 06:39:50;;;;;;;6.50;3.80;;;;;;;;;;5072258;28;20027;-40
2022/11/06 06:42:15;;;;;;;4.70;4.03;;;;;;;;;;5072098;28;20332;-42
2022/11/06 06:44:40;;;;;;;6.07;3.87;;;;;;;;;;5072192;28;20273;-40
2022/11/06 06:47:06;;;;;;;5.37;3.30;;;;;;;;;;5072317;28;20261;-39
2022/11/06 06:49:31;;;;;;;6.70;4.27;;;;;;;;;;5072360;28;20762;-39
2022/11/06 06:51:56;;;;;;;5.75;3.60;;;;;;;;;;5072089;28;20726;-42
2022/11/06 06:54:21;;;;;;;5.03;3.33;;;;;;;;;;5072046;28;20072;-37
2022/11/06 06:56:47;;;;;;;8.05;3.88;;;;;;;;;;5071903;28;20238;-40
2022/11/06 06:59:12;;;;;;;5.45;3.53;;;;;;;;;;5071822;28;20516;-39
2022/11/06 07:01:38;;;;;;;6.22;4.03;;;;;;;;;;5072175;28;20077;-38
2022/11/06 07:04:03;;;;;;;11.60;4.38;;;;;;;;;;5072120;28;20061;-39
2022/11/06 07:06:28;;;;;;;6.20;3.70;;;;;;;;;;5073182;28;20023;-38
2022/11/06 07:08:54;;;;;;;5.15;3.50;;;;;;;;;;5075783;28;20103;-38
2022/11/06 07:11:20;;;;;;;5.20;3.42;;;;;;;;;;5075435;28;20025;-41
2022/11/06 07:13:45;;;;;;;5.05;3.78;;;;;;;;;;5075293;28;20024;-42
2022/11/06 07:16:10;;;;;;;7.15;3.78;;;;;;;;;;5075246;28;20123;-39
2022/11/06 07:18:36;;;;;;;6.13;3.80;;;;;;;;;;5075388;28;20392;-43
2022/11/06 07:21:05;;;;;;;6.28;3.95;;;;;;;;;;5075312;28;20028;-42
2022/11/06 07:23:30;;;;;;;5.18;3.72;;;;;;;;;;5075156;28;20029;-40
2022/11/06 07:25:56;;;;;;;5.53;3.38;;;;;;;;;;5075151;28;20111;-41
2022/11/06 07:28:21;;;;;;;6.53;3.43;;;;;;;;;;5074969;28;20016;-41
2022/11/06 07:30:46;;;;;;;5.10;4.03;;;;;;;;;;5075056;28;20301;-40
2022/11/06 07:33:11;;;;;;;5.57;4.10;;;;;;;;;;5075260;28;20028;-39
2022/11/06 07:35:37;;;;;;;5.35;3.92;;;;;;;;;;5074601;28;20037;-40
2022/11/06 07:38:04;;;;;;;9.90;4.30;;;;;;;;;;5075017;28;20093;-41
2022/11/06 07:40:29;;;;;;;5.07;3.58;;;;;;;;;;5074754;28;20029;-39
2022/11/06 07:42:54;;;;;;;7.13;4.30;;;;;;;;;;5074933;28;20036;-39
2022/11/06 07:45:20;;;;;;;6.27;4.43;;;;;;;;;;5074442;28;20281;-40
2022/11/06 07:47:45;;;;;;;6.80;4.38;;;;;;;;;;5074939;28;20351;-38
2022/11/06 07:50:10;;;;;;;4.95;3.88;;;;;;;;;;5074949;28;20063;-39
2022/11/06 07:52:35;;;;;;;5.65;4.13;;;;;;;;;;5074710;28;20059;-38
2022/11/06 07:55:01;;;;;;;7.47;4.07;;;;;;;;;;5074578;28;20478;-40
2022/11/06 07:57:26;;;;;;;8.07;4.27;;;;;;;;;;5074508;28;20016;-41
2022/11/06 07:59:52;;;;;;;6.00;4.13;;;;;;;;;;5074346;28;20273;-39
2022/11/06 08:02:17;;;;;;;8.00;4.32;;;;;;;;;;5074600;28;20460;-38
2022/11/06 08:04:43;;;;;;;6.45;4.35;;;;;;;;;;5074357;28;20075;-41
2022/11/06 08:07:08;;;;;;;6.82;3.97;;;;;;;;;;5074383;28;20020;-37
2022/11/06 08:09:33;;;;;;;4.93;4.20;;;;;;;;;;5074384;28;20376;-38
2022/11/06 08:11:58;;;;;;;6.72;3.65;;;;;;;;;;5074355;28;20024;-41
2022/11/06 08:14:24;;;;;;;7.45;3.92;;;;;;;;;;5074008;28;20097;-42
2022/11/06 08:16:49;;;;;;;4.80;3.67;;;;;;;;;;5074232;28;20044;-41
2022/11/06 08:19:14;;;;;;;4.43;3.67;;;;;;;;;;5074265;28;20241;-42
2022/11/06 08:21:39;;;;;;;7.63;4.15;;;;;;;;;;5074225;28;20237;-41
2022/11/06 08:24:05;;;;;;;4.82;3.83;;;;;;;;;;5074076;28;20444;-41
2022/11/06 08:26:30;;;;;;;5.32;3.85;;;;;;;;;;5073859;28;20025;-39
2022/11/06 08:28:56;;;;;;;5.78;4.82;;;;;;;;;;5073820;28;20016;-41
2022/11/06 08:31:21;;;;;;;5.95;4.00;;;;;;;;;;5074021;28;20020;-38
2022/11/06 08:33:47;;;;;;;6.65;4.07;;;;;;;;;;5074009;28;20020;-40
2022/11/06 08:36:12;;;;;;;5.47;3.80;;;;;;;;;;5073582;28;20115;-39
2022/11/06 08:38:37;;;;;;;5.10;3.13;;;;;;;;;;5073789;28;20249;-39
2022/11/06 08:41:03;;;;;;;4.95;4.07;;;;;;;;;;5073567;28;20024;-43
2022/11/06 08:43:29;;;;;;;6.75;3.97;;;;;;;;;;5073375;28;20044;-42
2022/11/06 08:45:54;;;;;;;6.47;4.00;;;;;;;;;;5073869;28;20100;-41
2022/11/06 08:48:19;;;;;;;11.38;6.00;;;;;;;;;;5073642;28;20242;-42
2022/11/06 08:50:45;;;;;;;6.00;4.10;;;;;;;;;;5073598;28;20020;-42
2022/11/06 08:53:10;;;;;;;11.05;4.00;;;;;;;;;;5073536;28;20455;-36
2022/11/06 08:55:37;;;;;;;5.88;3.95;;;;;;;;;;5073425;28;20024;-41
2022/11/06 08:58:02;;;;;;;5.72;4.13;;;;;;;;;;5073169;28;20020;-40
2022/11/06 09:00:28;;;;;;;4.80;3.70;;;;;;;;;;5073269;28;20376;-40
2022/11/06 09:02:57;;;;;;;4.65;3.83;;;;;;;;;;5073444;28;20031;-41
2022/11/06 09:05:22;;;;;;;7.18;3.45;;;;;;;;;;5073209;28;20082;-40
2022/11/06 09:07:47;;;;;;;5.85;3.72;;;;;;;;;;5073156;28;20032;-42
2022/11/06 09:10:13;;;;;;;6.60;3.97;;;;;;;;;;5073124;28;20019;-36
2022/11/06 09:12:38;;;;;;;4.90;3.73;;;;;;;;;;5073000;28;20697;-39
2022/11/06 09:15:03;;;;;;;9.93;4.03;;;;;;;;;;5073280;28;20656;-42
2022/11/06 09:17:29;;;;;;;4.90;3.75;;;;;;;;;;5073116;28;20464;-42
2022/11/06 09:19:54;;;;;;;5.37;3.87;;;;;;;;;;5073053;28;20020;-42
2022/11/06 09:22:19;;;;;;;7.00;4.30;;;;;;;;;;5073125;28;20237;-42
2022/11/06 09:24:44;;;;;;;6.55;4.05;;;;;;;;;;5073071;28;20234;-38
2022/11/06 09:27:10;;;;;;;5.82;3.83;;;;;;;;;;5072733;28;20021;-38
2022/11/06 09:29:39;;;;;;;5.97;3.60;;;;;;;;;;5072291;28;20024;-37
2022/11/06 09:32:04;;;;;;;;;;;;;;;;;;5073525;28;20024;-41
2022/11/06 09:34:29;;;;;;;5.38;3.75;;;;;;;;;;5072719;28;19912;-42
2022/11/06 09:36:55;;;;;;;7.33;3.70;;;;;;;;;;5072902;28;20020;-39
2022/11/06 09:39:20;;;;;;;4.90;4.20;;;;;;;;;;5072685;28;20233;-36
2022/11/06 09:42:05;;;;;;;7.60;3.67;;;;;;;;;;5072429;28;20340;-39
2022/11/06 09:44:47;;;;;;;9.45;4.03;;;;;;;;;;5072551;28;20282;-40
2022/11/06 09:47:14;;;;;;;9.05;3.83;;;;;;;;;;5072925;28;20090;-40
2022/11/06 09:49:50;;;;;;;6.43;3.90;;;;;;;;;;5072621;28;20448;-40
2022/11/06 09:52:25;;;;;;;11.02;4.55;;;;;;;;;;5072470;28;20032;-40
2022/11/06 09:55:00;;;;;;;6.03;4.18;;;;;;;;;;5072404;28;20074;-41
2022/11/06 09:57:38;;;;;;;7.88;3.40;;;;;;;;;;5072591;28;20102;-41
2022/11/06 10:00:04;;;;;;;5.10;3.45;;;;;;;;;;5072563;28;20029;-42
2022/11/06 10:02:29;;;;;;;14.55;7.07;;;;;;;;;;5072476;28;20020;-38
2022/11/06 10:05:15;;;;;;;7.65;3.67;;;;;;;;;;5072254;28;20060;-39
2022/11/06 10:07:41;;;;;;;7.82;3.75;;;;;;;;;;5072333;28;20043;-41
2022/11/06 10:10:10;;;;;;;6.10;3.50;;;;;;;;;;5072524;28;20442;-37
2022/11/06 10:12:35;;;;;;;;;;;;;;;;;;5072726;28;20090;-40
2022/11/06 10:15:13;;;;;;;3.97;3.10;;;;;;;;;;5072299;28;20367;-41
2022/11/06 10:17:56;;;;;;;4.90;3.25;;;;;;;;;;5072789;28;20108;-42
2022/11/06 10:20:41;;;;;;;4.40;3.00;;;;;;;;;;5072345;28;20033;-39
2022/11/06 10:23:16;;;;;;;4.82;2.97;;;;;;;;;;5072407;28;20025;-41
2022/11/06 10:25:43;;;;;;;6.25;3.25;;;;;;;;;;5072030;28;20111;-42
2022/11/06 10:28:30;;;;;;;4.20;2.70;;;;;;;;;;5072220;28;20024;-43
2022/11/06 10:31:14;;;;;;;5.22;3.13;;;;;;;;;;5072527;28;20466;-40
2022/11/06 10:33:49;;;;;;;3.38;2.45;;;;;;;;;;5072034;28;20035;-40
2022/11/06 10:36:16;;;;;;;4.72;2.80;;;;;;;;;;5071975;28;20051;-42
2022/11/06 10:38:46;;;;;;;4.75;2.67;;;;;;;;;;5072244;28;20037;-41
2022/11/06 10:41:23;;;;;;;3.30;2.38;;;;;;;;;;5074374;28;20421;-38
2022/11/06 10:43:51;;;;;;;5.03;2.30;;;;;;;;;;5075704;28;20071;-43
2022/11/06 10:46:25;;;;;;;4.35;3.08;;;;;;;;;;5075798;28;20023;-40
2022/11/06 10:48:58;;;;;;;3.33;2.05;;;;;;;;;;5075947;28;20025;-42
2022/11/06 10:51:24;;;;;;;5.97;2.67;;;;;;;;;;5075943;28;20122;-42
2022/11/06 10:54:13;;;;;;;8.03;2.67;;;;;;;;;;5076020;28;20463;-38
2022/11/06 10:56:57;;;;;;;2.88;2.30;;;;;;;;;;5075583;28;20047;-42
2022/11/06 10:59:22;;;;;;;3.25;2.60;;;;;;;;;;5060510;28;20056;-39
2022/11/06 11:01:48;;;;;;;3.22;2.40;;;;;;;;;;5054767;28;20443;-40
2022/11/06 11:04:13;;;;;;;4.25;2.60;;;;;;;;;;5055604;28;20468;-41
2022/11/06 11:06:41;;;;;;;3.43;2.13;;;;;;;;;;5055904;28;20020;-42
2022/11/06 11:09:26;;;;;;;4.63;3.00;;;;;;;;;;5055880;28;20462;-38
2022/11/06 11:11:51;;;;;;;6.10;3.05;;;;;;;;;;5056099;28;20497;-41
2022/11/06 11:14:26;;;;;;;9.33;3.30;;;;;;;;;;5055792;28;20017;-36
2022/11/06 11:16:52;;;;;;;4.03;3.08;;;;;;;;;;5056224;28;20265;-39
2022/11/06 11:19:26;;;;;;;4.32;2.78;;;;;;;;;;5055808;28;20025;-36
2022/11/06 11:21:53;;;;;;;5.32;3.53;;;;;;;;;;5055514;28;20053;-39
2022/11/06 11:24:18;;;;;;;6.65;3.58;;;;;;;;;;5055821;28;20090;-38
2022/11/06 11:26:45;;;;;;;4.90;2.70;;;;;;;;;;5055184;28;20438;-40
2022/11/06 11:29:14;;;;;;;5.82;2.85;;;;;;;;;;5055662;28;20252;-41
2022/11/06 11:31:43;;;;;;;8.68;3.17;;;;;;;;;;5055431;28;20035;-39
2022/11/06 11:34:14;;;;;;;4.95;3.08;;;;;;;;;;5055411;28;20029;-34
2022/11/06 11:36:47;;;;;;;7.50;3.67;;;;;;;;;;5055513;28;20132;-40
2022/11/06 11:39:13;;;;;;;5.22;3.65;;;;;;;;;;5055468;28;20071;-39
2022/11/06 11:41:38;;;;;;;6.90;3.67;;;;;;;;;;5055275;28;20067;-36
2022/11/06 11:44:04;;;;;;;5.27;3.43;;;;;;;;;;5055166;28;20040;-39
2022/11/06 11:46:30;;;;;;;6.68;4.00;;;;;;;;;;5055003;28;20547;-40
2022/11/06 11:48:56;;;;;;;6.18;3.92;;;;;;;;;;5055035;28;20101;-37
2022/11/06 11:51:24;;;;;;;8.15;3.65;;;;;;;;;;5054489;28;20095;-37
2022/11/06 11:53:51;;;;;;;6.82;3.53;;;;;;;;;;5073877;28;20468;-38
2022/11/06 11:56:19;;;;;;;8.77;3.75;;;;;;;;;;5073657;28;20071;-40
2022/11/06 11:58:49;;;;;;;12.68;5.05;;;;;;;;;;5073622;28;20029;-41
2022/11/06 12:01:14;;;;;;;7.20;3.92;;;;;;;;;;5073535;28;20024;-40
2022/11/06 12:03:42;;;;;;;8.75;4.22;;;;;;;;;;5072045;28;20112;-42
2022/11/06 12:06:11;;;;;;;5.55;3.38;;;;;;;;;;5073393;28;20016;-37
2022/11/06 12:08:38;;;;;;;5.35;3.65;;;;;;;;;;5073456;28;20103;-41
2022/11/06 12:11:04;;;;;;;6.10;3.63;;;;;;;;;;5073503;28;20064;-40
2022/11/06 12:13:30;;;;;;;8.00;3.75;;;;;;;;;;5073139;28;20436;-39
2022/11/06 12:15:57;;;;;;;6.27;4.23;;;;;;;;;;5073986;28;20060;-37
2022/11/06 12:18:29;;;;;;;7.80;4.43;;;;;;;;;;5073502;28;20777;-39
2022/11/06 12:20:54;;;;;;;6.20;3.63;;;;;;;;;;5073546;28;20403;-37
2022/11/06 12:23:35;;;;;;;8.37;5.13;;;;;;;;;;5057814;28;20063;-37
2022/11/06 12:26:04;;;;;;;5.18;3.60;;;;;;;;;;5054413;28;20480;-41
2022/11/06 12:28:30;;;;;;;6.72;3.78;;;;;;;;;;5054243;28;20013;-38
2022/11/06 12:31:01;;;;;;;5.32;3.53;;;;;;;;;;5054533;28;20494;-41
2022/11/06 12:33:26;;;;;;;6.60;3.72;;;;;;;;;;5054547;28;20104;-42
2022/11/06 12:35:57;;;;;;;8.35;4.47;;;;;;;;;;5054310;28;20572;-40
2022/11/06 12:38:27;;;;;;;6.65;3.83;;;;;;;;;;5054266;28;20017;-37
2022/11/06 12:41:16;;;;;;;4.40;3.70;;;;;;;;;;5053817;28;20021;-42
2022/11/06 12:43:48;;;;;;;4.90;3.75;;;;;;;;;;5046869;28;20535;-40
2022/11/06 12:46:37;;;;;;;6.85;3.97;;;;;;;;;;5053785;28;20036;-38
2022/11/06 12:49:02;;;;;;;7.05;4.10;;;;;;;;;;5053065;28;20052;-41
2022/11/06 12:51:34;;;;;;;9.93;3.90;;;;;;;;;;5051942;28;20047;-41
2022/11/06 12:54:02;;;;;;;9.90;4.78;;;;;;;;;;5053733;28;20256;-40
2022/11/06 12:56:39;;;;;;;8.50;4.53;;;;;;;;;;5053498;28;20086;-37
2022/11/06 12:59:22;;;;;;;8.73;3.45;;;;;;;;;;5053631;28;20024;-39
2022/11/06 13:01:57;;;;;;;7.20;3.90;;;;;;;;;;5053139;28;20464;-38
2022/11/06 13:04:40;;;;;;;7.15;4.60;;;;;;;;;;5052435;28;20024;-37
2022/11/06 13:07:24;;;;;;;6.10;3.50;;;;;;;;;;5053343;28;20064;-40
2022/11/06 13:09:55;;;;;;;9.70;3.80;;;;;;;;;;5053366;28;20515;-42
2022/11/06 13:12:20;;;;;;;7.45;4.72;;;;;;;;;;5053004;28;20025;-40
2022/11/06 13:15:09;;;;;;;5.73;3.87;;;;;;;;;;5053253;28;20037;-38
2022/11/06 13:17:54;;;;;;;7.18;4.32;;;;;;;;;;5053075;28;20384;-39
2022/11/06 13:20:32;;;;;;;13.27;6.18;;;;;;;;;;5052995;28;20033;-40
2022/11/06 13:23:23;;;;;;;13.90;7.20;;;;;;;;;;5053016;28;20468;-40
2022/11/06 13:25:55;;;;;;;12.32;5.45;;;;;;;;;;5050759;28;20132;-42
2022/11/06 13:28:27;;;;;;;8.07;4.70;;;;;;;;;;5052913;28;20024;-39
2022/11/06 13:30:52;;;;;;;10.10;4.72;;;;;;;;;;5052709;28;20024;-42
2022/11/06 13:33:18;;;;;;;9.23;3.75;;;;;;;;;;5052868;28;20016;-36
2022/11/06 13:35:44;;;;;;;6.60;3.77;;;;;;;;;;5052616;28;20492;-37
2022/11/06 13:38:17;;;;;;;7.03;3.97;;;;;;;;;;5052871;28;20056;-42
2022/11/06 13:40:44;;;;;;;7.18;4.40;;;;;;;;;;5052705;28;20025;-39
2022/11/06 13:43:21;;;;;;;10.85;4.50;;;;;;;;;;5052605;28;20024;-40
2022/11/06 13:46:05;;;;;;;9.23;4.32;;;;;;;;;;5052429;28;20477;-42
2022/11/06 13:48:30;;;;;;;7.68;4.40;;;;;;;;;;5052626;28;20025;-38
2022/11/06 13:51:02;;;;;;;8.87;4.83;;;;;;;;;;5052730;28;20028;-40
2022/11/06 13:53:33;;;;;;;8.65;4.45;;;;;;;;;;5052583;28;20087;-39
2022/11/06 13:56:05;;;;;;;6.03;4.30;;;;;;;;;;5052249;28;20033;-40
2022/11/06 13:58:45;;;;;;;5.65;3.65;;;;;;;;;;5052417;28;20036;-38
2022/11/06 14:01:10;;;;;;;5.05;3.55;;;;;;;;;;5052592;28;20025;-41
2022/11/06 14:03:36;;;;;;;6.77;4.20;;;;;;;;;;5052551;28;20028;-40
2022/11/06 14:06:16;;;;;;;8.47;4.17;;;;;;;;;;5052547;28;20017;-41
2022/11/06 14:08:41;;;;;;;6.18;3.70;;;;;;;;;;5052307;28;20293;-40
2022/11/06 14:11:15;;;;;;;7.15;4.80;;;;;;;;;;5052695;28;20122;-37
2022/11/06 14:13:41;;;;;;;7.35;4.70;;;;;;;;;;5052530;28;20029;-41
2022/11/06 14:16:26;;;;;;;7.43;4.28;;;;;;;;;;5054793;28;20044;-40
2022/11/06 14:19:17;;;;;;;10.40;4.93;;;;;;;;;;5056330;28;20031;-38
2022/11/06 14:21:44;;;;;;;7.95;4.22;;;;;;;;;;5054080;28;20519;-41
2022/11/06 14:24:26;;;;;;;6.20;3.92;;;;;;;;;;5056552;28;20047;-39
2022/11/06 14:26:51;;;;;;;6.47;3.85;;;;;;;;;;5056450;28;20029;-39
2022/11/06 14:29:29;;;;;;;6.00;3.80;;;;;;;;;;5056239;28;20021;-39
2022/11/06 14:32:09;;;;;;;5.22;3.58;;;;;;;;;;5056439;28;20256;-41
2022/11/06 14:34:35;;;;;;;7.10;4.35;;;;;;;;;;5056247;28;20458;-37
2022/11/06 14:37:23;;;;;;;8.20;3.90;;;;;;;;;;5055798;28;20530;-38
2022/11/06 14:39:55;;;;;;;8.52;4.55;;;;;;;;;;5055748;28;20028;-38
2022/11/06 14:42:23;;;;;;;10.38;4.45;;;;;;;;;;5056006;28;20384;-39
2022/11/06 14:44:50;;;;;;;11.07;5.15;;;;;;;;;;5056008;28;20055;-39
2022/11/06 14:47:23;;;;;;;8.90;4.90;;;;;;;;;;5056106;28;20454;-39
2022/11/06 14:49:50;;;;;;;6.75;4.35;;;;;;;;;;5055785;28;20119;-37
2022/11/06 14:52:17;;;;;;;9.65;4.53;;;;;;;;;;5055775;28;20083;-42
2022/11/06 14:54:50;;;;;;;8.45;5.03;;;;;;;;;;5055872;28;20499;-39
2022/11/06 14:57:17;;;;;;;10.05;5.10;;;;;;;;;;5055900;28;20026;-41
2022/11/06 14:59:43;;;;;;;7.75;4.50;;;;;;;;;;5055629;28;20049;-40
2022/11/06 15:02:17;;;;;;;8.00;5.38;;;;;;;;;;5055884;28;20028;-39
2022/11/06 15:04:45;;;;;;;7.82;5.15;;;;;;;;;;5055549;28;20528;-41
2022/11/06 15:07:24;;;;;;;9.25;5.38;;;;;;;;;;5055652;28;20013;-37